Time;durP1;ratioP1;P1;durP2;ratioP2;P2;SDS_P1;SDS_P2;PMS_P1;PMS_P2;Temp;Humidity;BMP_temperature;BMP_pressure;BME280_temperature;BME280_humidity;BME280_pressure;Samples;Min_cycle;Max_cycle;Signal;HPM_P1;HPM_P2
2022/06/27 00:00:33;;;;;;;71.25;28.33;;;;;;;22.05;60.24;100033.59;4813369;29;20070;-92
2022/06/27 00:06:45;;;;;;;69.20;28.73;;;;;;;21.84;60.06;99982.31;4877546;29;20044;-95
2022/06/27 00:10:22;;;;;;;83.82;28.85;;;;;;;22.38;60.54;100061.94;4876440;29;20044;-93
2022/06/27 00:14:05;;;;;;;76.78;29.42;;;;;;;22.29;61.09;100065.00;4862206;29;20132;-92
2022/06/27 00:16:41;;;;;;;77.15;30.95;;;;;;;22.04;62.01;100042.28;4849402;29;20052;-95
2022/06/27 00:19:07;;;;;;;74.00;30.43;;;;;;;22.13;62.19;100072.69;4859879;29;20036;-91
2022/06/27 00:21:37;;;;;;;86.57;31.25;;;;;;;21.83;62.90;100033.59;4879627;23;20223;-92
2022/06/27 00:24:07;;;;;;;70.00;29.38;;;;;;;21.56;63.36;100014.84;4852761;29;20041;-92
2022/06/27 00:26:39;;;;;;;79.00;29.55;;;;;;;21.38;63.84;99999.78;4853586;29;20040;-92
2022/06/27 00:29:09;;;;;;;78.20;28.58;;;;;;;21.26;63.30;99986.84;4864339;29;20563;-92
2022/06/27 00:34:22;;;;;;;70.90;28.85;;;;;;;21.34;61.83;99994.16;4842145;29;20061;-90
2022/06/27 00:36:55;;;;;;;74.78;26.30;;;;;;;21.39;61.81;99989.47;4828331;29;20066;-92
2022/06/27 00:39:24;;;;;;;67.15;27.45;;;;;;;21.36;61.82;99979.91;4827892;29;20050;-92
2022/06/27 00:41:50;;;;;;;57.38;25.75;;;;;;;21.53;62.50;100015.59;4813474;29;20505;-92
2022/06/27 00:44:40;;;;;;;71.00;26.25;;;;;;;21.81;63.28;100078.47;4843590;29;20080;-92
2022/06/27 00:47:12;;;;;;;59.30;25.60;;;;;;;21.14;63.68;99986.22;4815123;29;20053;-94
2022/06/27 00:49:38;;;;;;;65.38;26.02;;;;;;;21.30;64.13;100017.50;4816127;29;20038;-92
2022/06/27 00:52:23;;;;;;;63.90;26.73;;;;;;;21.62;63.91;100075.75;4856906;23;20044;-92
2022/06/27 00:55:39;;;;;;;63.85;26.58;;;;;;;21.57;63.92;100074.88;4833782;29;20196;-92
2022/06/27 00:58:05;;;;;;;76.53;25.50;;;;;;;21.18;63.83;100012.91;4843477;29;20420;-93
2022/06/27 01:00:35;;;;;;;61.88;25.55;;;;;;;21.15;63.97;100016.41;4835258;29;20045;-92
2022/06/27 01:03:55;;;;;;;59.50;25.15;;;;;;;21.45;64.01;100077.00;4835679;29;20057;-92
2022/06/27 01:06:48;;;;;;;62.58;25.42;;;;;;;21.39;64.23;100065.41;4825678;29;20050;-92
2022/06/27 01:09:15;;;;;;;61.75;24.98;;;;;;;20.82;64.47;99989.94;4798502;29;20049;-91
2022/06/27 01:12:48;;;;;;;62.45;24.65;;;;;;;21.40;64.70;100069.78;4828956;29;20121;-96
2022/06/27 01:16:10;;;;;;;69.25;24.27;;;;;;;21.43;64.43;100071.84;4818047;29;20062;-92
2022/06/27 01:19:06;;;;;;;61.72;24.13;;;;;;;21.48;64.19;100073.50;4812945;29;20408;-92
2022/06/27 01:25:07;;;;;;;61.35;22.77;;;;;;;21.21;63.12;100016.94;4827994;29;20042;-93
2022/06/27 01:27:33;;;;;;;60.38;22.65;;;;;;;21.09;63.18;99990.91;4830927;29;20142;-94
2022/06/27 01:30:27;;;;;;;54.90;22.40;;;;;;;21.71;63.05;100079.91;4809947;29;20145;-90
2022/06/27 01:33:02;;;;;;;53.35;22.40;;;;;;;21.57;62.85;100043.47;4763811;29;20086;-94
2022/06/27 01:36:41;;;;;;;69.88;20.85;;;;;;;21.34;62.70;100002.50;4776346;29;20541;-94
2022/06/27 01:38:37;;;;;;;69.68;21.65;;;;;;;21.27;62.86;99984.88;4825397;29;20042;-93
2022/06/27 01:42:09;;;;;;;53.22;21.05;;;;;;;21.89;62.61;100068.31;4835369;23;20432;-95
2022/06/27 01:44:56;;;;;;;69.30;22.60;;;;;;;21.91;63.02;100074.28;4830402;29;20054;-93
2022/06/27 01:47:22;;;;;;;;;;;;;;;21.90;63.11;100076.28;4845684;29;20685;-92
2022/06/27 01:50:02;;;;;;;49.83;21.73;;;;;;;21.37;63.40;99995.41;4834661;29;19928;-93
2022/06/27 01:52:53;;;;;;;47.70;21.63;;;;;;;21.39;63.21;100000.59;4824911;29;20085;-91
2022/06/27 01:55:30;;;;;;;;;;;;;;;;;;;;;
2022/06/27 01:58:58;;;;;;;;;;;;;;;;;;;;;
2022/06/27 02:05:34;;;;;;;47.80;20.65;;;;;;;21.79;63.85;100036.31;4787316;29;20494;-93
2022/06/27 02:08:16;;;;;;;51.50;21.63;;;;;;;21.49;63.98;99989.69;4787544;29;20030;-94
2022/06/27 02:11:08;;;;;;;43.10;20.77;;;;;;;21.89;64.15;100037.69;4854231;23;20480;-94
2022/06/27 02:13:35;;;;;;;46.40;20.90;;;;;;;21.56;64.39;99986.22;4818789;29;20136;-91
2022/06/27 02:17:17;;;;;;;45.40;20.83;;;;;;;22.16;64.22;100072.75;4852574;29;20061;-93
2022/06/27 02:19:50;;;;;;;77.40;25.20;;;;;;;21.66;64.08;99995.94;4834020;29;20534;-93
2022/06/27 02:22:17;;;;;;;58.28;22.15;;;;;;;22.03;64.24;100041.50;4850167;29;20095;-93
2022/06/27 02:24:44;;;;;;;61.85;22.55;;;;;;;22.05;64.62;100039.16;4850637;23;20057;-94
2022/06/27 02:27:11;;;;;;;;;;;;;;;22.32;64.61;100067.06;4851221;29;20049;-91
2022/06/27 02:29:38;;;;;;;51.78;19.92;;;;;;;21.80;65.48;99987.81;4829549;29;19924;-92
2022/06/27 02:32:05;;;;;;;47.35;20.40;;;;;;;21.90;65.28;99991.97;4832598;29;20042;-92
2022/06/27 02:34:34;;;;;;;51.35;19.73;;;;;;;22.10;65.06;100020.50;4834511;29;20041;-92
2022/06/27 02:37:03;;;;;;;37.08;19.80;;;;;;;22.18;65.34;100019.47;4869966;23;20065;-92
2022/06/27 02:39:46;;;;;;;;;;;;;;;;;;;;;
2022/06/27 02:42:49;;;;;;;47.00;19.33;;;;;;;22.61;65.63;100071.06;4830570;29;20046;-92
2022/06/27 02:45:19;;;;;;;48.95;19.90;;;;;;;22.52;65.96;100039.91;4816865;29;20042;-92
2022/06/27 02:47:49;;;;;;;51.53;19.60;;;;;;;22.38;66.01;100007.03;4819545;29;20047;-92
2022/06/27 02:50:25;;;;;;;51.40;18.67;;;;;;;22.58;65.54;100038.34;4826016;29;20144;-93
2022/06/27 02:53:10;;;;;;;52.97;18.55;;;;;;;22.54;65.16;100008.84;4829002;29;20077;-91
2022/06/27 02:55:40;;;;;;;41.67;17.13;;;;;;;22.48;64.01;99983.28;4827188;29;20048;-92
2022/06/27 03:02:50;;;;;;;32.30;16.42;;;;;;;22.72;64.45;99982.84;4851253;29;20057;-93
2022/06/27 03:06:40;;;;;;;;;;;;;;;;;;;;;
2022/06/27 03:10:25;;;;;;;;;;;;;;;23.56;61.57;100057.94;4792796;30;20089;-93
2022/06/27 03:21:11;;;;;;;;;;;;;;;;;;;;;
2022/06/27 03:29:12;;;;;;;;;;;;;;;;;;;;;
2022/06/27 03:32:45;;;;;;;21.25;13.60;;;;;;;23.99;59.34;99988.56;4754187;30;20142;-94
2022/06/27 03:45:34;;;;;;;24.67;15.10;;;;;;;24.52;57.73;100005.69;4882392;29;20053;-91
2022/06/27 03:48:02;;;;;;;42.13;15.32;;;;;;;24.37;58.59;99973.22;4852910;29;20048;-92
2022/06/27 03:51:16;;;;;;;28.70;14.55;;;;;;;24.72;57.51;99999.81;4854780;24;20058;31
2022/06/27 03:53:42;;;;;;;23.73;14.32;;;;;;;24.59;56.72;99974.19;4840124;23;20053;-92
2022/06/27 03:56:36;;;;;;;39.10;16.95;;;;;;;25.21;57.18;100055.19;4832558;29;20038;-94
2022/06/27 04:00:36;;;;;;;;;;;;;;;;;;;;;
2022/06/27 04:04:31;;;;;;;28.00;14.07;;;;;;;25.47;56.06;100053.28;4827557;29;20086;-95
2022/06/27 04:07:34;;;;;;;30.33;14.68;;;;;;;25.26;56.86;100000.81;4808889;29;20095;-93
2022/06/27 04:10:03;;;;;;;38.08;15.70;;;;;;;25.08;55.14;99962.38;4781722;29;20055;-92
2022/06/27 04:12:53;;;;;;;40.85;15.77;;;;;;;25.24;55.82;99973.25;4809189;29;20119;-93
2022/06/27 04:15:28;;;;;;;37.53;16.83;;;;;;;25.63;54.93;100027.69;4880258;23;20113;-92
2022/06/27 04:18:00;;;;;;;33.33;14.05;;;;;;;25.42;54.14;99970.47;4891439;29;20577;-92
2022/06/27 04:20:57;;;;;;;47.55;14.18;;;;;;;25.86;55.06;100028.16;4867088;23;20130;-92
2022/06/27 04:23:35;;;;;;;24.33;14.02;;;;;;;25.78;54.17;99999.31;4822780;29;20060;-93
2022/06/27 04:27:10;;;;;;;46.85;15.48;;;;;;;26.24;52.94;100056.56;4866351;23;20065;-93
2022/06/27 04:30:18;;;;;;;23.58;13.93;;;;;;;25.77;53.86;99974.50;4869525;29;20072;-93
2022/06/27 04:33:06;;;;;;;31.13;13.73;;;;;;;26.14;53.20;100010.53;4870995;29;20051;-92
2022/06/27 04:36:14;;;;;;;;;;;;;;;;;;;;;
2022/06/27 04:38:49;;;;;;;24.42;13.50;;;;;;;26.30;50.84;99996.09;4858448;29;20048;-89
2022/06/27 04:41:34;;;;;;;23.42;14.00;;;;;;;26.29;50.97;99976.88;4854269;29;20041;-91
2022/06/27 04:46:59;;;;;;;19.77;13.25;;;;;;;26.42;51.41;99972.44;4850251;29;20109;-92
2022/06/27 04:50:11;;;;;;;31.33;14.70;;;;;;;26.67;52.01;99995.63;4882811;29;20117;-92
2022/06/27 04:52:41;;;;;;;21.35;13.70;;;;;;;26.50;50.60;99954.44;4859699;29;20045;-89
2022/06/27 04:55:10;;;;;;;25.92;14.80;;;;;;;26.96;51.68;100020.78;4864790;29;20060;-91
2022/06/27 04:57:46;;;;;;;23.23;15.55;;;;;;;26.75;51.62;99967.53;4848216;29;20057;-89
2022/06/27 05:00:38;;;;;;;22.95;13.88;;;;;;;27.26;50.59;100031.47;4866468;29;20144;-92
2022/06/27 05:03:44;;;;;;;33.33;14.68;;;;;;;27.35;49.65;100023.41;4828171;29;20049;-93
2022/06/27 05:06:34;;;;;;;30.42;15.32;;;;;;;27.12;50.54;99975.41;4859652;29;20105;-92
2022/06/27 05:09:02;;;;;;;24.10;14.77;;;;;;;27.21;50.21;99977.75;4863511;29;20045;-91
2022/06/27 05:25:59;;;;;;;38.55;16.60;;;;;;;28.13;46.60;100010.00;4832499;29;20046;-93
2022/06/27 05:29:29;;;;;;;44.78;24.50;;;;;;;28.21;47.09;100011.53;4967183;23;20129;-89
2022/06/27 05:31:57;;;;;;;32.50;16.95;;;;;;;27.84;46.83;99930.78;4837298;29;20061;-92
2022/06/27 05:34:42;;;;;;;88.15;21.55;;;;;;;28.01;46.42;99955.13;4834860;29;20037;-94
2022/06/27 05:37:08;;;;;;;28.23;17.00;;;;;;;28.08;47.36;99969.09;4858261;23;20045;-93
2022/06/27 05:39:40;;;;;;;49.10;27.23;;;;;;;28.41;46.98;99992.09;4833026;29;20041;-91
2022/06/27 05:42:06;;;;;;;27.48;16.10;;;;;;;28.13;46.93;99953.00;4858017;29;20053;-90
2022/06/27 05:44:36;;;;;;;38.25;16.27;;;;;;;28.00;46.85;99924.59;4866133;29;20072;-90
2022/06/27 05:47:05;;;;;;;47.47;24.63;;;;;;;28.09;46.32;99927.72;4850091;23;20068;-92
2022/06/27 05:50:27;;;;;;;54.22;31.55;;;;;;;28.16;46.08;99927.66;4872850;23;20136;-91
2022/06/27 05:53:09;;;;;;;48.55;24.65;;;;;;;28.50;47.41;99969.06;4862453;23;20058;-92
2022/06/27 05:55:38;;;;;;;57.80;27.23;;;;;;;28.24;46.55;99926.34;4861178;23;20443;-95
2022/06/27 06:04:17;;;;;;;40.25;17.35;;;;;;;28.33;45.91;99921.03;5130471;23;20056;-94
2022/06/27 06:07:03;;;;;;;43.65;21.77;;;;;;;28.93;45.70;100000.31;4838483;29;20044;-95
2022/06/27 06:09:43;;;;;;;;;;;;;;;;;;;;;
2022/06/27 06:22:13;;;;;;;29.33;17.20;;;;;;;29.18;44.40;99985.13;3912104;23;20114;-89
2022/06/27 06:40:54;;;;;;;75.37;21.27;;;;;;;29.40;43.18;99963.06;4874107;23;20079;-92
2022/06/27 06:43:21;;;;;;;60.50;29.60;;;;;;;29.04;43.19;99907.31;4879555;23;20435;-95
2022/06/27 06:54:41;;;;;;;68.72;28.60;;;;;;;29.60;43.94;99966.81;4868752;29;20060;-93
2022/06/27 08:56:32;;;;;;;40.72;25.73;;;;;;;31.39;38.32;99925.81;5276429;23;20072;-91
2022/06/27 09:02:56;;;;;;;;;;;;;;;;;;;;;
2022/06/27 09:06:05;;;;;;;57.25;32.10;;;;;;;31.22;39.52;99885.44;5102556;23;20143;-93
2022/06/27 09:09:33;;;;;;;;;;;;;;;;;;;;;
2022/06/27 09:18:50;;;;;;;54.90;29.98;;;;;;;31.44;39.54;99911.19;5062864;23;20057;-93
2022/06/27 09:21:17;;;;;;;56.25;30.13;;;;;;;31.33;39.20;99895.28;4850152;23;20519;-90
2022/06/27 09:24:17;;;;;;;71.25;39.70;;;;;;;31.64;40.54;99928.84;4828020;29;20064;-93
2022/06/27 09:27:38;;;;;;;84.47;25.95;;;;;;;31.68;39.49;99923.09;4843070;29;20076;-92
2022/06/27 09:31:02;;;;;;;55.63;33.28;;;;;;;31.69;39.21;99917.00;4839385;29;20097;-88
2022/06/27 09:33:31;;;;;;;66.07;34.63;;;;;;;31.37;38.99;99864.13;4836007;29;20045;-93
2022/06/27 09:35:57;;;;;;;51.28;27.98;;;;;;;31.28;39.01;99844.91;4833816;29;20111;-92
2022/06/27 09:38:27;;;;;;;60.50;26.85;;;;;;;31.37;39.26;99858.47;4796906;29;20038;-91
2022/06/27 09:40:54;;;;;;;62.80;26.75;;;;;;;31.62;37.41;99893.75;4827593;29;20049;-92
2022/06/27 09:43:27;;;;;;;61.28;27.90;;;;;;;31.26;37.61;99824.81;4831245;29;20044;-93
2022/06/27 09:45:56;;;;;;;64.93;31.42;;;;;;;31.58;38.63;99872.03;4846952;29;20045;-92
2022/06/27 09:48:24;;;;;;;64.75;31.83;;;;;;;31.62;39.11;99862.66;4817154;29;20057;-92
2022/06/27 09:50:51;;;;;;;81.57;36.30;;;;;;;31.59;39.63;99882.13;4820781;29;20124;-90
2022/06/27 09:53:25;;;;;;;56.08;30.73;;;;;;;31.24;38.45;99852.69;4827122;29;20033;-92
2022/06/27 09:55:52;;;;;;;60.72;36.17;;;;;;;31.47;39.59;99877.19;4830698;29;20072;-91
2022/06/27 09:58:20;;;;;;;57.40;32.70;;;;;;;31.36;39.15;99848.41;4830964;29;20526;-92
2022/06/27 10:00:48;;;;;;;51.63;26.08;;;;;;;31.36;37.91;99839.94;4816716;29;20041;-94
2022/06/27 10:03:20;;;;;;;44.35;26.67;;;;;;;31.82;39.19;99900.91;4829493;29;20065;-90
2022/06/27 10:05:50;;;;;;;46.70;27.63;;;;;;;31.57;37.80;99856.31;4796879;29;20042;-91
2022/06/27 10:08:48;;;;;;;52.55;34.20;;;;;;;31.64;37.79;99858.16;4839109;29;20148;-91
2022/06/27 10:11:15;;;;;;;52.83;29.77;;;;;;;31.56;38.37;99837.00;4826861;29;20527;-91
2022/06/27 10:13:43;;;;;;;42.85;29.17;;;;;;;32.03;37.32;99899.56;4822589;29;20063;-90
2022/06/27 10:16:14;;;;;;;49.92;25.45;;;;;;;31.61;35.80;99835.66;4841616;29;20051;-91
2022/06/27 10:19:06;;;;;;;49.63;29.60;;;;;;;32.03;36.69;99891.06;4851769;29;20061;-91
2022/06/27 10:21:40;;;;;;;45.30;29.35;;;;;;;31.85;37.93;99848.31;4854928;29;20125;-90
2022/06/27 10:24:31;;;;;;;64.28;27.10;;;;;;;31.97;36.14;99838.34;4844219;29;20520;-92
2022/06/27 10:27:29;;;;;;;51.85;27.73;;;;;;;31.91;37.02;99840.13;4829213;29;20041;-92
2022/06/27 10:30:16;;;;;;;47.08;26.45;;;;;;;32.09;36.17;99885.66;4829420;29;20037;-89
2022/06/27 10:32:46;;;;;;;55.03;28.35;;;;;;;31.49;36.54;99804.06;4812862;29;20078;-92
2022/06/27 10:35:14;;;;;;;45.28;27.27;;;;;;;31.61;36.83;99802.53;4816140;29;20131;-92
2022/06/27 10:37:43;;;;;;;43.28;28.40;;;;;;;31.86;36.02;99843.47;4827395;29;20041;-90
2022/06/27 10:40:18;;;;;;;58.75;29.35;;;;;;;31.98;36.48;99866.16;4815032;29;20042;-89
2022/06/27 10:42:56;;;;;;;67.32;30.08;;;;;;;31.81;36.90;99830.66;4840488;29;20045;-90
2022/06/27 10:45:26;;;;;;;52.17;31.20;;;;;;;31.94;37.42;99836.41;4844896;29;20140;-89
2022/06/27 10:47:58;;;;;;;65.88;37.78;;;;;;;31.79;37.88;99800.00;4828870;29;20041;-90
2022/06/27 10:50:28;;;;;;;65.20;38.17;;;;;;;31.95;37.81;99802.00;4825723;29;20078;-90
2022/06/27 10:53:21;;;;;;;59.05;35.95;;;;;;;32.45;37.68;99874.16;4810564;29;20086;-92
2022/06/27 10:55:48;;;;;;;58.20;30.20;;;;;;;32.03;36.60;99791.28;4810563;29;20052;-88
2022/06/27 10:58:27;;;;;;;44.10;29.48;;;;;;;32.18;36.81;99805.78;4857604;29;20070;-89
2022/06/27 11:01:12;;;;;;;37.65;27.55;;;;;;;32.05;37.17;99783.97;4838625;29;20041;-90
2022/06/27 11:03:39;;;;;;;53.30;32.50;;;;;;;32.12;36.93;99784.97;4843434;29;20137;-90
2022/06/27 11:06:33;;;;;;;50.28;32.38;;;;;;;32.47;37.21;99860.34;4828630;29;20041;-91
2022/06/27 11:09:03;;;;;;;33.78;25.30;;;;;;;32.06;34.97;99807.38;4817266;29;20049;-90
2022/06/27 11:11:30;;;;;;;39.65;26.20;;;;;;;32.25;36.20;99805.59;4830491;29;20033;-90
2022/06/27 11:13:59;;;;;;;41.13;29.27;;;;;;;32.30;35.88;99788.06;4844013;29;20041;-92
2022/06/27 11:16:28;;;;;;;33.15;23.27;;;;;;;32.32;36.16;99777.09;4836869;29;20052;-91
2022/06/27 11:22:44;;;;;;;46.65;26.45;;;;;;;32.66;34.11;99784.16;4860664;29;20064;-92
2022/06/27 11:25:38;;;;;;;64.10;33.78;;;;;;;33.18;34.28;99845.22;4857645;29;20534;-94
2022/06/27 11:34:03;;;;;;;88.68;27.67;;;;;;;32.28;34.78;99785.69;4853167;29;20048;-93
2022/06/27 11:36:33;;;;;;;93.35;40.17;;;;;;;32.31;34.31;99766.22;4849414;29;20045;-95
2022/06/27 11:39:00;;;;;;;61.22;34.05;;;;;;;32.64;33.76;99817.78;4848130;29;20033;-88
2022/06/27 11:41:57;;;;;;;;;;;;;;;;;;;;;
2022/06/27 11:48:27;;;;;;;74.05;37.58;;;;;;;32.78;33.57;99779.72;4966455;23;20546;-90
2022/06/27 11:54:48;;;;;;;58.92;30.83;;;;;;;32.73;34.79;99815.06;5465767;23;20365;-92
2022/06/27 12:01:42;;;;;;;56.10;32.42;;;;;;;33.44;33.79;99841.09;4986349;23;20061;-94
2022/06/27 12:23:22;;;;;;;44.85;26.42;;;;;;;33.01;33.45;99744.59;4849930;29;20298;-93
2022/06/27 12:40:32;;;;;;;67.22;30.20;;;;;;;33.46;32.89;99766.91;4891095;29;20109;-93
2022/06/27 12:42:58;;;;;;;99.18;40.75;;;;;;;33.85;33.92;99815.78;4857428;29;20131;-96
2022/06/27 12:46:35;;;;;;;74.72;29.60;;;;;;;33.77;33.59;99817.28;4839586;29;20115;-92
2022/06/27 13:04:53;;;;;;;116.80;54.78;;;;;;;33.58;33.76;99782.34;4867848;29;20065;-93
2022/06/27 13:07:19;;;;;;;64.65;28.00;;;;;;;33.64;32.56;99757.78;4837934;29;20044;-94
2022/06/27 13:09:51;;;;;;;;;;;;;;;33.92;30.51;99813.47;5029419;23;20057;-95
2022/06/27 13:12:21;;;;;;;46.15;29.00;;;;;;;33.68;31.50;99758.47;4876236;29;19995;-94
2022/06/27 13:14:54;;;;;;;87.10;42.03;;;;;;;33.63;32.31;99725.81;4842974;29;20033;-95
2022/06/27 13:18:10;;;;;;;66.45;33.63;;;;;;;34.21;31.01;99806.00;4823902;29;20053;-94
2022/06/27 13:21:50;;;;;;;98.97;46.25;;;;;;;34.29;31.63;99804.44;4842955;29;20493;-95
2022/06/27 13:28:33;;;;;;;57.67;31.83;;;;;;;33.99;30.83;99746.38;5227596;23;20057;-94
2022/06/27 13:35:24;;;;;;;57.03;32.65;;;;;;;34.23;30.75;99792.09;5252233;23;20057;-93
2022/06/27 13:37:57;;;;;;;112.93;51.15;;;;;;;33.95;31.75;99726.66;4868025;29;20079;-93
2022/06/27 13:40:33;;;;;;;107.63;54.20;;;;;;;33.76;32.13;99703.06;4834376;29;20066;-95
2022/06/27 13:43:03;;;;;;;123.97;60.35;;;;;;;34.11;32.10;99759.75;4882282;23;20057;-94
2022/06/27 13:45:30;;;;;;;109.55;58.90;;;;;;;33.93;32.21;99737.69;4839520;29;20511;-95
2022/06/27 13:48:01;;;;;;;128.63;62.03;;;;;;;33.88;32.83;99764.59;4857077;29;20061;-94
2022/06/27 13:50:37;;;;;;;85.65;45.03;;;;;;;33.73;31.65;99766.38;4854488;29;20044;-96
2022/06/27 13:53:54;;;;;;;94.30;50.72;;;;;;;33.27;31.99;99705.66;4856248;29;20051;-96
2022/06/27 13:56:24;;;;;;;68.95;40.13;;;;;;;33.45;32.44;99742.66;4854818;23;20079;-96
2022/06/27 14:10:56;;;;;;;120.57;54.60;;;;;;;34.34;32.20;99764.91;4936859;23;20061;-94
2022/06/27 14:29:29;;;;;;;60.20;34.35;;;;;;;34.29;30.16;99736.31;4872157;23;20044;-96
2022/06/27 14:32:22;;;;;;;69.50;34.20;;;;;;;34.51;30.82;99762.63;4854051;29;20065;-96
2022/06/27 14:34:48;;;;;;;75.50;30.15;;;;;;;34.16;30.98;99695.91;4840626;29;20040;-92
2022/06/27 14:37:39;;;;;;;60.80;27.73;;;;;;;34.48;31.17;99765.59;4863467;29;20045;-96
2022/06/27 14:40:28;;;;;;;78.28;29.85;;;;;;;34.42;29.94;99773.13;4844057;29;20084;-91
2022/06/27 14:46:06;;;;;;;94.25;31.30;;;;;;;34.17;30.72;99703.16;4870620;29;20057;-96
2022/06/27 14:48:38;;;;;;;71.10;32.75;;;;;;;34.43;30.14;99715.88;4883465;29;20046;-91
2022/06/27 14:51:05;;;;;;;57.15;31.27;;;;;;;34.66;30.96;99739.34;4857967;29;20045;-94
2022/06/27 15:13:45;;;;;;;83.50;33.90;;;;;;;34.06;30.31;99689.41;4874551;29;20049;-96
2022/06/27 15:19:35;;;;;;;148.43;62.35;;;;;;;34.51;31.63;99739.13;4850686;29;20056;-95
2022/06/27 15:26:31;;;;;;;74.43;35.33;;;;;;;33.67;31.31;99711.50;4866132;29;20140;-93
2022/06/27 15:28:59;;;;;;;75.72;36.10;;;;;;;33.29;31.75;99712.47;4836680;24;20080;-91
2022/06/27 15:31:28;;;;;;;115.35;43.40;;;;;;;33.12;32.34;99742.22;4827890;29;20177;-91
2022/06/27 15:34:15;;;;;;;98.35;51.33;;;;;;;32.54;33.13;99695.16;4828059;29;20278;-91
2022/06/27 15:36:46;;;;;;;166.10;38.60;;;;;;;32.17;33.69;99665.63;4810452;29;20057;-93
2022/06/27 15:39:24;;;;;;;163.50;50.50;;;;;;;32.44;35.47;99697.09;4842635;23;20053;-93
2022/06/27 15:42:46;;;;;;;72.65;29.95;;;;;;;32.54;33.95;99740.44;4826089;29;20144;-95
2022/06/27 15:59:59;;;;;;;113.05;46.88;;;;;;;32.44;32.32;99662.34;4839797;29;20041;-95
2022/06/27 16:31:57;;;;;;;183.90;80.60;;;;;;;31.61;37.48;99743.16;4940024;23;20053;-95
2022/06/27 16:53:04;;;;;;;54.92;22.48;;;;;;;30.38;35.01;99712.81;4870665;29;20112;-89
2022/06/27 16:55:35;;;;;;;79.70;27.05;;;;;;;30.27;35.27;99704.59;4841237;29;20048;-95
2022/06/27 16:58:29;;;;;;;91.90;40.63;;;;;;;30.53;35.21;99762.03;4837716;29;20065;-92
2022/06/27 17:01:21;;;;;;;154.45;45.20;;;;;;;30.50;37.18;99756.44;5142083;23;20084;-94
2022/06/27 17:04:02;;;;;;;89.63;28.10;;;;;;;29.84;33.74;99673.72;4911167;23;20092;-94
2022/06/27 17:07:12;;;;;;;150.52;35.08;;;;;;;30.33;32.77;99769.72;4828408;29;20093;-90
2022/06/27 17:10:12;;;;;;;118.00;39.53;;;;;;;29.96;34.55;99715.31;4852099;29;20079;-92
2022/06/27 17:13:04;;;;;;;66.93;17.73;;;;;;;30.23;33.07;99768.72;4855125;29;20041;-90
2022/06/27 17:15:47;;;;;;;100.45;29.20;;;;;;;30.02;35.54;99729.69;4820393;29;20049;-92
2022/06/27 17:18:53;;;;;;;58.38;20.88;;;;;;;30.14;33.92;99762.88;4880907;23;20056;-90
2022/06/27 17:28:13;;;;;;;90.70;33.88;;;;;;;29.72;33.47;99732.31;4885455;29;20076;-89
2022/06/27 17:31:20;;;;;;;;;;;;;;;29.94;32.76;99774.16;4870195;29;20052;-90
2022/06/27 17:33:53;;;;;;;113.93;25.60;;;;;;;29.45;34.99;99721.16;4857260;29;19923;-91
2022/06/27 17:36:29;;;;;;;72.68;18.95;;;;;;;29.55;33.97;99755.19;4842108;23;20077;-90
2022/06/27 17:39:20;;;;;;;109.30;32.47;;;;;;;29.73;36.00;99773.38;4839007;29;20042;-90
2022/06/27 17:42:10;;;;;;;67.15;25.85;;;;;;;29.50;34.38;99748.00;4839941;29;20033;-90
2022/06/27 17:45:43;;;;;;;82.53;32.65;;;;;;;29.67;36.06;99783.56;4821775;29;20112;-88
2022/06/27 17:48:13;;;;;;;54.88;20.00;;;;;;;29.29;33.60;99745.59;4846769;29;20062;-88
2022/06/27 17:50:46;;;;;;;96.38;32.05;;;;;;;29.22;34.01;99732.47;4830114;29;20038;-91
2022/06/27 17:53:21;;;;;;;53.85;21.05;;;;;;;29.18;33.17;99743.00;4848005;29;20632;-89
2022/06/27 17:56:18;;;;;;;70.47;19.27;;;;;;;29.28;33.60;99758.91;4832416;29;20049;-89
2022/06/27 17:58:47;;;;;;;61.20;22.08;;;;;;;29.00;33.25;99723.59;4805610;29;20046;-88
2022/06/27 18:01:20;;;;;;;59.78;19.50;;;;;;;28.95;32.12;99724.06;4845650;29;20469;-87
2022/06/27 18:04:12;;;;;;;59.08;22.88;;;;;;;28.80;32.85;99712.22;4844422;23;20046;-91
2022/06/27 18:06:43;;;;;;;58.63;26.00;;;;;;;29.13;33.51;99771.63;4795819;29;20065;-89
2022/06/27 18:09:10;;;;;;;44.45;19.08;;;;;;;28.72;31.99;99725.63;4850562;29;20041;-89
2022/06/27 18:11:37;;;;;;;63.83;18.60;;;;;;;28.96;33.49;99762.22;4851299;29;20033;-89
2022/06/27 18:14:28;;;;;;;37.30;17.27;;;;;;;29.09;35.23;99797.03;4820399;29;20415;-91
2022/06/27 18:17:03;;;;;;;45.90;18.83;;;;;;;28.75;32.85;99761.38;4834797;29;20052;-95
2022/06/27 18:19:37;;;;;;;45.85;19.35;;;;;;;28.65;32.02;99759.50;4848565;29;20131;-90
2022/06/27 18:22:13;;;;;;;36.25;17.73;;;;;;;28.91;32.81;99797.31;4836518;29;20101;-91
2022/06/27 18:32:19;;;;;;;51.75;19.75;;;;;;;28.19;34.63;99715.19;4854251;29;20148;-89
2022/06/27 18:34:45;;;;;;;52.03;20.98;;;;;;;28.23;34.90;99727.16;4836392;29;20044;-91
2022/06/27 18:37:44;;;;;;;54.95;19.00;;;;;;;28.46;34.91;99774.25;4869177;23;20056;-92
2022/06/27 18:40:13;;;;;;;44.72;19.92;;;;;;;28.30;32.34;99755.97;4838728;29;20853;-94
2022/06/27 18:42:41;;;;;;;55.05;22.23;;;;;;;28.27;32.58;99748.38;4843724;29;20052;-91
2022/06/27 18:45:33;;;;;;;32.47;18.67;;;;;;;28.60;35.93;99807.00;4863300;29;20040;-92
2022/06/27 18:52:33;;;;;;;55.83;20.05;;;;;;;27.73;34.00;99720.16;4838249;23;20147;-93
2022/06/27 19:09:43;;;;;;;41.65;20.98;;;;;;;27.90;35.62;99799.84;5069896;23;20124;-94
2022/06/27 19:13:02;;;;;;;48.58;24.30;;;;;;;27.78;35.51;99806.81;4854207;23;20058;-95
2022/06/27 19:25:47;;;;;;;48.15;21.13;;;;;;;27.01;35.90;99722.09;5471595;23;20801;-94
2022/06/27 19:28:20;;;;;;;46.38;21.95;;;;;;;27.28;37.48;99767.16;4800626;29;20081;-91
2022/06/27 19:30:50;;;;;;;79.18;22.92;;;;;;;27.04;37.91;99743.72;4824790;29;20054;-92
2022/06/27 19:33:41;;;;;;;65.25;24.08;;;;;;;27.27;40.13;99805.69;4804362;29;20478;-92
2022/06/27 19:36:10;;;;;;;54.90;23.23;;;;;;;26.82;39.21;99760.75;4814148;29;20070;-96
2022/06/27 19:38:49;;;;;;;90.78;25.83;;;;;;;26.67;39.52;99748.81;4815513;29;20126;-93
2022/06/27 19:41:21;;;;;;;133.40;27.65;;;;;;;26.53;40.30;99748.94;4822276;29;20077;-90
2022/06/27 19:44:13;;;;;;;69.38;27.50;;;;;;;26.76;41.65;99798.84;4824193;23;20064;-95
2022/06/27 19:46:46;;;;;;;72.28;25.90;;;;;;;26.44;39.76;99768.16;4836525;29;20045;-91
2022/06/27 19:49:18;;;;;;;62.38;29.33;;;;;;;26.30;40.27;99752.25;5000823;23;20063;-92
2022/06/27 19:51:47;;;;;;;72.32;27.40;;;;;;;26.05;41.64;99724.34;4869066;23;20065;-89
2022/06/27 19:55:19;;;;;;;57.58;29.02;;;;;;;26.46;40.85;99794.59;5074871;23;20128;-95
2022/06/27 19:57:54;;;;;;;61.55;28.08;;;;;;;26.35;42.47;99802.25;4836998;29;20637;-91
2022/06/27 20:01:12;;;;;;;54.88;24.33;;;;;;;26.26;42.37;99804.72;4829531;23;20093;-92
2022/06/27 20:03:48;;;;;;;58.58;24.52;;;;;;;26.21;42.08;99794.72;4865172;23;20179;-92
2022/06/27 20:10:10;;;;;;;70.90;24.63;;;;;;;26.13;44.53;99806.38;4850140;23;19954;-94
2022/06/27 20:26:43;;;;;;;57.67;25.80;;;;;;;24.87;45.73;99690.22;4880801;29;20037;-95
2022/06/27 20:29:35;;;;;;;61.78;26.08;;;;;;;25.48;46.09;99800.13;4865206;29;20133;-91
2022/06/27 20:32:02;;;;;;;80.65;28.13;;;;;;;25.22;45.78;99776.16;4841478;29;20044;-90
2022/06/27 20:34:29;;;;;;;80.45;28.55;;;;;;;24.74;46.63;99712.22;4868267;29;20044;-90
2022/06/27 20:37:07;;;;;;;78.35;28.17;;;;;;;25.32;46.96;99811.72;4865692;29;20537;-93
2022/06/27 20:39:58;;;;;;;72.35;28.30;;;;;;;25.04;47.40;99793.72;4821656;29;20559;-93
2022/06/27 20:42:29;;;;;;;76.00;27.73;;;;;;;24.45;47.45;99703.81;4793952;23;20068;31
2022/06/27 20:45:21;;;;;;;71.85;27.08;;;;;;;24.84;47.04;99778.53;4852256;23;20125;-96
2022/06/27 20:51:42;;;;;;;86.38;26.42;;;;;;;24.42;47.95;99717.78;4858600;23;20063;-93
2022/06/27 20:54:20;;;;;;;74.72;27.85;;;;;;;25.01;47.66;99814.09;4852003;29;20049;-96
2022/06/27 20:56:47;;;;;;;78.78;29.60;;;;;;;24.58;47.91;99748.94;4855645;23;20057;-96
2022/06/27 21:00:24;;;;;;;74.40;27.17;;;;;;;24.74;48.08;99790.53;4878373;23;20312;-95